Time;durP1;ratioP1;P1;durP2;ratioP2;P2;SDS_P1;SDS_P2;PMS_P1;PMS_P2;Temp;Humidity;BMP_temperature;BMP_pressure;BME280_temperature;BME280_humidity;BME280_pressure;Samples;Min_cycle;Max_cycle;Signal;HPM_P1;HPM_P2
2024/04/20 00:00:23;;;;;;;0.60;0.60;;;;;;;3.32;100.00;96397.28;29395;199;64009;-56
2024/04/20 00:00:54;;;;;;;0.60;0.60;;;;;;;3.32;100.00;96386.56;29396;296;63009;-56
2024/04/20 00:01:25;;;;;;;0.60;0.60;;;;;;;3.33;100.00;96388.19;29396;277;63005;-58
2024/04/20 00:01:57;;;;;;;0.70;0.70;;;;;;;3.34;100.00;96384.44;29396;265;63009;-57
2024/04/20 00:02:28;;;;;;;0.60;0.60;;;;;;;3.33;100.00;96396.22;29396;225;63000;-59
2024/04/20 00:02:59;;;;;;;0.60;0.60;;;;;;;3.28;100.00;96401.56;29396;332;63009;-56
2024/04/20 00:03:30;;;;;;;0.60;0.60;;;;;;;3.26;100.00;96386.78;29396;205;63005;-58
2024/04/20 00:04:02;;;;;;;0.70;0.70;;;;;;;3.30;100.00;96391.38;29396;286;63015;-57
2024/04/20 00:04:33;;;;;;;0.60;0.60;;;;;;;3.29;100.00;96387.09;29396;240;63004;-57
2024/04/20 00:05:05;;;;;;;0.60;0.60;;;;;;;3.33;100.00;96392.75;29395;266;64013;-58
2024/04/20 00:05:38;;;;;;;0.60;0.60;;;;;;;3.33;100.00;96392.75;29395;202;64009;-57
2024/04/20 00:06:10;;;;;;;0.60;0.60;;;;;;;3.32;100.00;96397.28;29396;225;63008;-57
2024/04/20 00:06:42;;;;;;;0.68;0.68;;;;;;;3.33;100.00;96393.53;29396;322;63004;-56
2024/04/20 00:07:13;;;;;;;0.60;0.60;;;;;;;3.34;100.00;96389.81;29396;323;63009;-56
2024/04/20 00:07:47;;;;;;;0.60;0.60;;;;;;;3.36;100.00;96393.03;29396;199;63005;-58
2024/04/20 00:08:18;;;;;;;1.37;0.93;;;;;;;3.34;100.00;96386.31;29396;288;63009;-56
2024/04/20 00:08:50;;;;;;;0.60;0.60;;;;;;;3.34;100.00;96395.16;29396;250;63005;-59
2024/04/20 00:09:21;;;;;;;0.62;0.62;;;;;;;3.33;100.00;96393.53;29396;215;63009;-55
2024/04/20 00:09:56;;;;;;;0.60;0.60;;;;;;;3.31;100.00;96390.31;29396;258;63005;-56
2024/04/20 00:10:27;;;;;;;0.60;0.60;;;;;;;3.33;100.00;96393.53;29396;205;63009;-56
2024/04/20 00:11:05;;;;;;;0.60;0.60;;;;;;;3.35;100.00;96390.59;29395;202;64009;-57
2024/04/20 00:11:36;;;;;;;0.85;0.85;;;;;;;3.37;100.00;96383.91;29396;222;63009;-57
2024/04/20 00:12:07;;;;;;;0.70;0.70;;;;;;;3.36;100.00;96387.66;29396;224;63004;-56
2024/04/20 00:12:39;;;;;;;0.70;0.70;;;;;;;3.36;100.00;96386.88;29397;310;63009;-58
2024/04/20 00:13:10;;;;;;;0.60;0.60;;;;;;;3.35;100.00;96386.06;29397;273;63004;-57
2024/04/20 00:13:44;;;;;;;0.60;0.60;;;;;;;3.33;100.00;96382.00;29397;202;63008;-57
2024/04/20 00:14:15;;;;;;;0.60;0.60;;;;;;;3.32;100.00;96391.13;29397;203;63004;-57
2024/04/20 00:14:47;;;;;;;0.60;0.60;;;;;;;3.32;100.00;96391.94;29396;217;64014;-58
2024/04/20 00:15:19;;;;;;;0.60;0.60;;;;;;;3.31;100.00;96395.69;29397;222;63009;-56
2024/04/20 00:15:50;;;;;;;0.60;0.60;;;;;;;3.30;100.00;96391.38;29397;230;63009;-56
2024/04/20 00:16:21;;;;;;;0.60;0.60;;;;;;;3.31;100.00;96395.69;29396;322;64009;-58
2024/04/20 00:16:56;;;;;;;0.60;0.60;;;;;;;3.26;100.00;96392.97;29397;204;63009;-60
2024/04/20 00:17:27;;;;;;;0.60;0.60;;;;;;;3.27;100.00;96391.09;29397;208;63005;-64
2024/04/20 00:17:58;;;;;;;0.60;0.60;;;;;;;3.27;100.00;96391.09;29397;238;63009;-56
2024/04/20 00:18:29;;;;;;;0.60;0.60;;;;;;;3.26;100.00;96392.16;29397;250;63005;-57
2024/04/20 00:19:01;;;;;;;0.60;0.60;;;;;;;3.30;100.00;96388.69;29397;224;63009;-59
2024/04/20 00:19:36;;;;;;;0.70;0.70;;;;;;;3.33;100.00;96388.19;29397;257;63004;-57
2024/04/20 00:20:08;;;;;;;0.70;0.70;;;;;;;3.33;100.00;96393.53;29397;202;63009;-57
2024/04/20 00:20:40;;;;;;;0.70;0.70;;;;;;;3.29;100.00;96392.44;29397;332;63004;-61
2024/04/20 00:21:11;;;;;;;0.60;0.60;;;;;;;3.28;100.00;96390.81;29397;299;63008;-58
2024/04/20 00:21:42;;;;;;;0.77;0.77;;;;;;;3.24;100.00;96394.28;29396;231;64008;-55
2024/04/20 00:22:14;;;;;;;0.65;0.65;;;;;;;3.21;100.00;96386.75;29397;200;63009;-56
2024/04/20 00:22:45;;;;;;;0.70;0.70;;;;;;;3.16;100.00;96392.88;29397;206;63005;-54
2024/04/20 00:23:16;;;;;;;0.60;0.60;;;;;;;3.19;100.00;96389.69;29397;200;63009;-58
2024/04/20 00:23:47;;;;;;;0.70;0.70;;;;;;;3.22;100.00;96389.19;29397;245;63005;-58
2024/04/20 00:24:19;;;;;;;0.60;0.60;;;;;;;3.28;100.00;96395.37;29397;206;63009;-66
2024/04/20 00:24:51;;;;;;;0.70;0.70;;;;;;;3.31;100.00;96389.50;29397;196;63005;-56
2024/04/20 00:25:22;;;;;;;0.60;0.60;;;;;;;3.34;100.00;96389.81;29397;308;63009;-56
2024/04/20 00:25:53;;;;;;;0.60;0.60;;;;;;;3.33;100.00;96393.53;29396;236;63005;-59
2024/04/20 00:26:24;;;;;;;0.70;0.70;;;;;;;3.31;100.00;96384.94;29396;296;63009;-58
2024/04/20 00:26:56;;;;;;;0.65;0.65;;;;;;;3.31;100.00;96395.69;29395;299;64009;-63
2024/04/20 00:27:27;;;;;;;0.60;0.60;;;;;;;3.30;100.00;96398.63;29397;262;63009;-57
2024/04/20 00:27:59;;;;;;;0.62;0.62;;;;;;;3.31;100.00;96395.69;29396;228;63018;-56
2024/04/20 00:28:30;;;;;;;0.60;0.60;;;;;;;3.33;100.00;96395.41;29396;284;63009;-56
2024/04/20 00:29:02;;;;;;;0.60;0.60;;;;;;;3.32;100.00;96397.28;29396;215;63004;-68
2024/04/20 00:29:33;;;;;;;0.70;0.70;;;;;;;3.33;100.00;96398.91;29396;209;63009;-59
2024/04/20 00:30:05;;;;;;;0.60;0.60;;;;;;;3.32;100.00;96401.84;29395;209;64005;-57
2024/04/20 00:30:36;;;;;;;0.60;0.60;;;;;;;3.31;100.00;96400.22;29396;203;63009;-55
2024/04/20 00:31:08;;;;;;;0.60;0.60;;;;;;;3.33;100.00;96400.78;29397;238;63012;-56
2024/04/20 00:31:39;;;;;;;0.60;0.60;;;;;;;3.32;100.00;96407.22;29396;214;63009;-57
2024/04/20 00:32:10;;;;;;;0.60;0.60;;;;;;;3.32;100.00;96399.97;29395;224;64009;-57
2024/04/20 00:32:41;;;;;;;0.70;0.70;;;;;;;3.32;100.00;96402.66;29396;229;63009;-58
2024/04/20 00:33:12;;;;;;;4.78;1.45;;;;;;;3.33;100.00;96404.28;29396;225;63016;-57
2024/04/20 00:33:44;;;;;;;0.60;0.60;;;;;;;3.32;100.00;96404.53;29396;206;63009;-57
2024/04/20 00:34:15;;;;;;;0.60;0.60;;;;;;;3.30;100.00;96399.44;29396;242;63004;-62
2024/04/20 00:34:46;;;;;;;0.70;0.70;;;;;;;3.32;100.00;96402.66;29396;236;63009;-58
2024/04/20 00:35:18;;;;;;;1.77;1.67;;;;;;;3.30;100.00;96410.16;29396;198;63004;-56
2024/04/20 00:35:49;;;;;;;0.60;0.60;;;;;;;3.26;100.00;96409.03;29396;229;63009;-58
2024/04/20 00:36:21;;;;;;;0.93;0.93;;;;;;;3.26;100.00;96413.59;29396;309;63007;-57
2024/04/20 00:36:52;;;;;;;0.90;0.90;;;;;;;3.27;100.00;96415.22;29396;295;63008;-59
2024/04/20 00:37:24;;;;;;;0.70;0.70;;;;;;;3.30;100.00;96410.16;29395;223;64009;-58
2024/04/20 00:37:55;;;;;;;0.60;0.60;;;;;;;3.32;100.00;96408.03;29396;242;63009;-57
2024/04/20 00:38:26;;;;;;;0.60;0.60;;;;;;;3.32;100.00;96410.69;29396;214;63005;-57
2024/04/20 00:38:58;;;;;;;0.60;0.60;;;;;;;3.26;100.00;96408.25;29396;220;63009;-57
2024/04/20 00:39:29;;;;;;;0.60;0.60;;;;;;;3.25;100.00;96418.16;29397;225;63005;-56
2024/04/20 00:40:01;;;;;;;0.60;0.60;;;;;;;3.23;100.00;96419.47;29396;214;63009;-59
2024/04/20 00:40:32;;;;;;;0.80;0.80;;;;;;;3.26;100.00;96414.41;29396;202;63005;-59
2024/04/20 00:41:04;;;;;;;1.25;1.25;;;;;;;3.25;100.00;96418.16;29396;279;63009;-59
2024/04/20 00:41:35;;;;;;;0.60;0.60;;;;;;;3.26;100.00;96414.41;29396;320;63004;-56
2024/04/20 00:42:08;;;;;;;0.60;0.60;;;;;;;3.23;100.00;96409.56;29396;227;63009;-57
2024/04/20 00:42:40;;;;;;;0.60;0.60;;;;;;;3.22;100.00;96412.50;29395;266;64009;-57
2024/04/20 00:43:17;;;;;;;0.60;0.60;;;;;;;3.22;100.00;96416.00;29396;278;63009;-56
2024/04/20 00:43:48;;;;;;;0.60;0.60;;;;;;;3.23;100.00;96419.47;29396;254;63004;-58
2024/04/20 00:44:20;;;;;;;0.60;0.60;;;;;;;3.25;100.00;96417.34;29396;218;63008;-55
2024/04/20 00:44:51;;;;;;;0.60;0.60;;;;;;;3.21;100.00;96422.41;29396;238;63005;-56
2024/04/20 00:45:24;;;;;;;0.68;0.68;;;;;;;3.21;100.00;96417.06;29396;212;63009;-57
2024/04/20 00:45:57;;;;;;;0.60;0.60;;;;;;;3.21;100.00;96422.41;29396;271;63005;-57
2024/04/20 00:46:29;;;;;;;0.60;0.60;;;;;;;3.22;100.00;96420.53;29396;209;63009;-56
2024/04/20 00:47:03;;;;;;;0.60;0.60;;;;;;;3.18;100.00;96409.53;29396;269;63005;-57
2024/04/20 00:47:37;;;;;;;0.60;0.60;;;;;;;3.22;100.00;96429.38;29396;248;64013;-57
2024/04/20 00:48:08;;;;;;;0.60;0.60;;;;;;;3.24;100.00;96423.78;29396;202;63005;-57
2024/04/20 00:48:40;;;;;;;0.60;0.60;;;;;;;3.22;100.00;96413.31;29396;220;63009;-56
2024/04/20 00:49:12;;;;;;;0.60;0.60;;;;;;;3.24;100.00;96411.19;29396;228;63004;-57
2024/04/20 00:49:44;;;;;;;0.60;0.60;;;;;;;3.28;100.00;96422.19;29396;222;63009;-56
2024/04/20 00:50:16;;;;;;;0.60;0.60;;;;;;;3.28;100.00;96416.84;29396;220;63009;-58
2024/04/20 00:50:49;;;;;;;0.60;0.60;;;;;;;3.25;100.00;96412.78;29396;228;63009;-57
2024/04/20 00:51:22;;;;;;;0.70;0.70;;;;;;;3.25;100.00;96417.34;29396;218;63004;-57
2024/04/20 00:51:54;;;;;;;0.60;0.60;;;;;;;3.26;100.00;96419.78;29396;218;63026;-60
2024/04/20 00:52:27;;;;;;;0.60;0.60;;;;;;;3.26;100.00;96417.09;29395;246;64009;-57
2024/04/20 00:52:58;;;;;;;0.60;0.60;;;;;;;3.27;100.00;96416.03;29396;209;63009;-55
2024/04/20 00:53:31;;;;;;;0.65;0.65;;;;;;;3.24;100.00;96421.91;29396;320;63005;-55
2024/04/20 00:54:04;;;;;;;0.88;0.88;;;;;;;3.23;100.00;96416.78;29396;203;63009;-56
2024/04/20 00:54:36;;;;;;;0.60;0.60;;;;;;;3.24;100.00;96419.22;29395;235;64009;-58
2024/04/20 00:55:08;;;;;;;0.60;0.60;;;;;;;3.28;100.00;96423.00;29396;215;63009;-57
2024/04/20 00:55:42;;;;;;;0.60;0.60;;;;;;;3.25;100.00;96428.88;29396;202;63005;-57
2024/04/20 00:56:14;;;;;;;0.60;0.60;;;;;;;3.24;100.00;96421.91;29396;196;63005;-58
2024/04/20 00:56:45;;;;;;;0.60;0.60;;;;;;;3.23;100.00;96431.00;29395;260;64009;-57
2024/04/20 00:57:17;;;;;;;0.60;0.60;;;;;;;3.21;100.00;96435.81;29396;269;63009;-57
2024/04/20 00:57:50;;;;;;;0.70;0.70;;;;;;;3.22;100.00;96424.03;29396;243;63004;-57
2024/04/20 00:58:22;;;;;;;0.60;0.60;;;;;;;3.22;100.00;96439.31;29396;330;63022;-58
2024/04/20 00:58:54;;;;;;;0.60;0.60;;;;;;;3.22;100.00;96425.91;29396;301;63004;-62
2024/04/20 00:59:27;;;;;;;0.60;0.60;;;;;;;3.21;100.00;96427.78;29396;202;63016;-59
2024/04/20 00:59:58;;;;;;;0.60;0.60;;;;;;;3.22;100.00;96429.38;29396;257;63005;-58
2024/04/20 01:00:32;;;;;;;0.60;0.60;;;;;;;3.18;100.00;96435.53;29396;228;63009;-56
2024/04/20 01:01:05;;;;;;;0.60;0.60;;;;;;;3.11;100.00;96433.09;29396;197;63005;-56
2024/04/20 01:01:36;;;;;;;0.60;0.60;;;;;;;3.10;100.00;96434.16;29396;219;63009;-57
2024/04/20 01:02:09;;;;;;;0.60;0.60;;;;;;;3.06;100.00;96435.72;29395;300;64009;-56
2024/04/20 01:02:40;;;;;;;0.60;0.60;;;;;;;3.09;100.00;96424.50;29396;203;63009;-54
2024/04/20 01:03:12;;;;;;;0.60;0.60;;;;;;;3.09;100.00;96429.03;29396;321;63004;-55
2024/04/20 01:03:44;;;;;;;0.77;0.77;;;;;;;3.14;100.00;96426.37;29396;202;63009;-55
2024/04/20 01:04:15;;;;;;;0.60;0.60;;;;;;;3.12;100.00;96428.53;29396;210;63004;-58
2024/04/20 01:04:46;;;;;;;0.60;0.60;;;;;;;3.14;100.00;96429.06;29396;196;63009;-58
2024/04/20 01:05:18;;;;;;;0.60;0.60;;;;;;;3.14;100.00;96429.06;29396;228;63004;-58
2024/04/20 01:05:50;;;;;;;0.60;0.60;;;;;;;3.09;100.00;96423.69;29396;206;63017;-56
2024/04/20 01:06:22;;;;;;;0.65;0.65;;;;;;;3.10;100.00;96434.16;29396;327;63004;-57
2024/04/20 01:06:53;;;;;;;0.60;0.60;;;;;;;3.10;100.00;96436.81;29396;238;63008;-58
2024/04/20 01:07:24;;;;;;;0.60;0.60;;;;;;;3.10;100.00;96436.81;29395;209;64009;-56
2024/04/20 01:07:55;;;;;;;0.60;0.60;;;;;;;3.10;100.00;96430.66;29396;328;63009;-56
2024/04/20 01:08:27;;;;;;;0.60;0.60;;;;;;;3.07;100.00;96434.66;29395;221;64005;-57
2024/04/20 01:08:58;;;;;;;0.75;0.75;;;;;;;3.03;100.00;96437.03;29396;217;63009;-57
2024/04/20 01:09:29;;;;;;;0.60;0.60;;;;;;;3.05;100.00;96423.38;29396;202;63005;-60
2024/04/20 01:10:01;;;;;;;0.60;0.60;;;;;;;3.09;100.00;96434.41;29396;204;63009;-58
2024/04/20 01:10:32;;;;;;;0.70;0.70;;;;;;;3.09;100.00;96431.72;29396;197;63005;-57
2024/04/20 01:11:04;;;;;;;0.60;0.60;;;;;;;3.09;100.00;96440.56;29396;298;63009;-58
2024/04/20 01:11:36;;;;;;;0.60;0.60;;;;;;;3.12;100.00;96434.66;29396;204;63006;-58
2024/04/20 01:12:07;;;;;;;0.60;0.60;;;;;;;3.15;100.00;96436.84;29396;224;63009;-57
2024/04/20 01:12:38;;;;;;;0.60;0.60;;;;;;;3.16;100.00;96438.47;29395;208;64009;-57
2024/04/20 01:13:10;;;;;;;0.60;0.60;;;;;;;3.16;100.00;96437.66;29396;299;63009;-60
2024/04/20 01:13:52;;;;;;;0.70;0.70;;;;;;;3.13;100.00;96435.47;29396;267;63004;-57
2024/04/20 01:14:24;;;;;;;0.60;0.60;;;;;;;3.15;100.00;96444.88;29396;200;63009;-55
2024/04/20 01:14:55;;;;;;;0.60;0.60;;;;;;;3.16;100.00;96440.31;29396;299;63005;-59
2024/04/20 01:15:26;;;;;;;0.70;0.70;;;;;;;3.16;100.00;96435.78;29396;214;63009;-56
2024/04/20 01:15:58;;;;;;;0.60;0.60;;;;;;;3.16;100.00;96451.84;29397;220;63005;-59
2024/04/20 01:16:29;;;;;;;0.60;0.60;;;;;;;3.17;100.00;96434.72;29397;320;63009;-57
2024/04/20 01:17:02;;;;;;;0.60;0.60;;;;;;;3.17;100.00;96444.63;29397;225;63000;-60
2024/04/20 01:17:34;;;;;;;0.60;0.60;;;;;;;3.12;100.00;96440.03;29397;199;63009;-60
2024/04/20 01:18:06;;;;;;;0.60;0.60;;;;;;;3.19;100.00;96435.25;29394;206;64028;-55
2024/04/20 01:18:37;;;;;;;0.70;0.70;;;;;;;3.21;100.00;96435.81;29397;210;63009;-56
2024/04/20 01:19:17;;;;;;;0.60;0.60;;;;;;;3.20;100.00;96436.06;29395;212;63004;-58
2024/04/20 01:19:48;;;;;;;0.60;0.60;;;;;;;3.15;100.00;96438.72;29395;288;63009;-55
2024/04/20 01:20:20;;;;;;;0.60;0.60;;;;;;;3.12;100.00;96442.72;29395;196;63004;-58
2024/04/20 01:20:51;;;;;;;0.60;0.60;;;;;;;3.14;100.00;96437.91;29395;218;63008;-55
2024/04/20 01:21:24;;;;;;;0.68;0.68;;;;;;;3.14;100.00;96432.53;29395;278;63004;-56
2024/04/20 01:21:56;;;;;;;0.70;0.70;;;;;;;3.16;100.00;96438.47;29395;242;63015;-58
2024/04/20 01:22:27;;;;;;;0.60;0.60;;;;;;;3.16;100.00;96440.31;29395;205;63016;-60
2024/04/20 01:23:02;;;;;;;0.60;0.60;;;;;;;3.13;100.00;96436.28;29395;214;63009;-58
2024/04/20 01:23:34;;;;;;;0.60;0.60;;;;;;;3.12;100.00;96439.25;29393;265;64009;-57
2024/04/20 01:24:10;;;;;;;0.68;0.68;;;;;;;3.10;100.00;96436.81;29395;226;63009;-56
2024/04/20 01:24:42;;;;;;;0.60;0.60;;;;;;;3.06;100.00;96435.72;29395;204;63005;-58
2024/04/20 01:25:15;;;;;;;0.60;0.60;;;;;;;3.11;100.00;96438.44;29395;197;63009;-58
2024/04/20 01:25:51;;;;;;;0.70;0.70;;;;;;;3.16;100.00;96434.97;29395;286;63004;-57
2024/04/20 01:26:23;;;;;;;0.70;0.70;;;;;;;3.14;100.00;96435.22;29395;199;63009;-57
2024/04/20 01:26:55;;;;;;;0.70;0.70;;;;;;;3.14;100.00;96432.53;29395;197;63004;-57
2024/04/20 01:27:26;;;;;;;0.60;0.60;;;;;;;3.17;100.00;96431.22;29373;245;63009;-56
2024/04/20 01:27:57;;;;;;;0.60;0.60;;;;;;;3.11;100.00;96435.75;29395;379;63004;-56
2024/04/20 01:28:28;;;;;;;0.60;0.60;;;;;;;3.11;100.00;96426.91;29395;215;63008;-55
2024/04/20 01:28:59;;;;;;;0.60;0.60;;;;;;;3.11;100.00;96438.44;29393;224;64008;-58
2024/04/20 01:29:31;;;;;;;1.12;1.12;;;;;;;3.14;100.00;96437.91;29395;215;63009;-61
2024/04/20 01:30:03;;;;;;;0.60;0.60;;;;;;;3.14;100.00;96432.53;29395;248;63005;-57
2024/04/20 01:30:34;;;;;;;0.70;0.70;;;;;;;3.13;100.00;96440.84;29395;235;63009;-59
2024/04/20 01:31:06;;;;;;;0.62;0.62;;;;;;;3.10;100.00;96439.50;29395;224;63005;-55
2024/04/20 01:31:37;;;;;;;0.60;0.60;;;;;;;3.09;100.00;96429.03;29394;204;63008;-56
2024/04/20 01:32:08;;;;;;;0.70;0.70;;;;;;;3.10;100.00;96436.81;29395;218;63005;-55
2024/04/20 01:32:39;;;;;;;0.60;0.60;;;;;;;3.08;100.00;96433.59;29395;244;63009;-57
2024/04/20 01:33:11;;;;;;;0.70;0.70;;;;;;;3.06;100.00;96434.91;29395;225;63005;-57
2024/04/20 01:33:43;;;;;;;0.70;0.70;;;;;;;3.06;100.00;96437.59;29395;204;63009;-58
2024/04/20 01:34:14;;;;;;;0.60;0.60;;;;;;;3.07;100.00;96434.66;29393;270;64009;-57
2024/04/20 01:34:45;;;;;;;1.27;1.27;;;;;;;3.09;100.00;96429.03;29395;263;63009;-61
2024/04/20 01:35:18;;;;;;;0.68;0.68;;;;;;;3.12;100.00;96445.41;29395;220;63004;-58
2024/04/20 01:35:51;;;;;;;0.60;0.60;;;;;;;3.12;100.00;96436.56;29395;196;63008;-55
2024/04/20 01:36:22;;;;;;;0.60;0.60;;;;;;;3.09;100.00;96445.12;29395;202;63004;-56
2024/04/20 01:36:57;;;;;;;0.60;0.60;;;;;;;3.09;100.00;96440.56;29395;333;63009;-56
2024/04/20 01:37:28;;;;;;;0.60;0.60;;;;;;;3.08;100.00;96441.63;29395;221;63005;-58
2024/04/20 01:37:59;;;;;;;0.60;0.60;;;;;;;3.06;100.00;96446.44;29395;214;63009;-57
2024/04/20 01:38:31;;;;;;;0.60;0.60;;;;;;;3.06;100.00;96430.34;29395;212;63005;-58
2024/04/20 01:39:02;;;;;;;0.60;0.60;;;;;;;3.04;100.00;96437.84;29393;229;64013;-57
2024/04/20 01:39:33;;;;;;;0.60;0.60;;;;;;;3.03;100.00;96441.59;29395;218;63005;-58
2024/04/20 01:40:06;;;;;;;0.70;0.70;;;;;;;3.08;100.00;96441.63;29395;213;63009;-57
2024/04/20 01:40:37;;;;;;;0.60;0.60;;;;;;;3.11;100.00;96445.69;29395;300;63005;-56
2024/04/20 01:41:08;;;;;;;0.70;0.70;;;;;;;3.11;100.00;96437.62;29395;267;63009;-57
2024/04/20 01:41:40;;;;;;;0.60;0.60;;;;;;;3.10;100.00;96442.19;29395;198;63009;-55
2024/04/20 01:42:11;;;;;;;0.70;0.70;;;;;;;3.05;100.00;96446.69;29395;202;63004;-55
2024/04/20 01:42:42;;;;;;;0.60;0.60;;;;;;;3.08;100.00;96441.63;29395;206;63004;-60
2024/04/20 01:43:15;;;;;;;0.60;0.60;;;;;;;3.10;100.00;96442.19;29393;305;64013;-58
2024/04/20 01:43:47;;;;;;;0.68;0.68;;;;;;;3.09;100.00;96443.25;29395;211;63004;-57
2024/04/20 01:44:18;;;;;;;0.70;0.70;;;;;;;3.06;100.00;96446.44;29395;205;63009;-60
2024/04/20 01:44:49;;;;;;;0.62;0.62;;;;;;;3.08;100.00;96444.31;29393;219;64009;-62
2024/04/20 01:45:22;;;;;;;0.60;0.60;;;;;;;3.05;100.00;96444.81;29395;225;63009;-56
2024/04/20 01:45:54;;;;;;;0.60;0.60;;;;;;;3.05;100.00;96450.19;29395;205;63005;-57
2024/04/20 01:46:25;;;;;;;0.60;0.60;;;;;;;3.08;100.00;96448.87;29395;224;63009;-56
2024/04/20 01:46:57;;;;;;;0.60;0.60;;;;;;;3.07;100.00;96453.41;29395;213;63005;-57
2024/04/20 01:47:28;;;;;;;0.60;0.60;;;;;;;3.08;100.00;96455.03;29395;234;63009;-56
2024/04/20 01:47:59;;;;;;;0.60;0.60;;;;;;;3.06;100.00;96451.00;29395;212;63005;-55
2024/04/20 01:48:31;;;;;;;0.60;0.60;;;;;;;3.05;100.00;96452.06;29395;206;63023;-56
2024/04/20 01:49:02;;;;;;;0.60;0.60;;;;;;;3.04;100.00;96448.56;29395;208;63004;-56
2024/04/20 01:49:34;;;;;;;0.60;0.60;;;;;;;3.06;100.00;96451.81;29393;225;64013;-57
2024/04/20 01:50:06;;;;;;;0.70;0.70;;;;;;;3.06;100.00;96451.81;29395;213;63004;-56
2024/04/20 01:50:38;;;;;;;0.60;0.60;;;;;;;3.02;100.00;96451.50;29395;224;63022;-56
2024/04/20 01:51:10;;;;;;;0.60;0.60;;;;;;;3.01;100.00;96454.44;29395;378;63009;-56
2024/04/20 01:51:41;;;;;;;0.60;0.60;;;;;;;2.99;100.00;96445.84;29395;219;63008;-55
2024/04/20 01:52:13;;;;;;;0.70;0.70;;;;;;;2.97;100.00;96439.94;29395;213;63005;-57
2024/04/20 01:52:44;;;;;;;0.62;0.62;;;;;;;2.99;100.00;96461.91;29395;206;63009;-60
2024/04/20 01:53:15;;;;;;;0.60;0.60;;;;;;;3.03;100.00;96446.94;29395;257;63005;-58
2024/04/20 01:53:46;;;;;;;0.60;0.60;;;;;;;3.02;100.00;96450.69;29395;213;63009;-56
2024/04/20 01:54:17;;;;;;;0.60;0.60;;;;;;;3.02;100.00;96450.69;29394;296;64009;-57
2024/04/20 01:54:50;;;;;;;0.70;0.70;;;;;;;3.01;100.00;96449.06;29395;197;63009;-55
2024/04/20 01:55:21;;;;;;;0.60;0.60;;;;;;;3.06;100.00;96457.16;29395;197;63010;-56
2024/04/20 01:55:52;;;;;;;0.65;0.65;;;;;;;3.05;100.00;96450.19;29395;218;63009;-57
2024/04/20 01:56:23;;;;;;;0.80;0.80;;;;;;;3.08;100.00;96449.69;29395;331;63004;-61
2024/04/20 01:56:55;;;;;;;0.60;0.60;;;;;;;3.04;100.00;96453.94;29395;269;63009;-56
2024/04/20 01:57:26;;;;;;;0.60;0.60;;;;;;;3.03;100.00;96452.31;29395;224;63004;-55
2024/04/20 01:57:57;;;;;;;0.60;0.60;;;;;;;3.02;100.00;96450.69;29395;220;63009;-55
2024/04/20 01:58:28;;;;;;;0.60;0.60;;;;;;;2.99;100.00;96456.56;29395;202;63004;-55
2024/04/20 01:59:00;;;;;;;0.60;0.60;;;;;;;2.98;100.00;96444.22;29395;291;63008;-57
2024/04/20 01:59:31;;;;;;;0.70;0.70;;;;;;;2.98;100.00;96454.94;29393;199;64009;-55
2024/04/20 02:00:03;;;;;;;0.70;0.70;;;;;;;2.97;100.00;96453.31;29395;213;63009;-56
2024/04/20 02:00:34;;;;;;;0.60;0.60;;;;;;;3.00;100.00;96458.19;29395;232;63005;-57
2024/04/20 02:01:05;;;;;;;0.60;0.60;;;;;;;2.98;100.00;96458.44;29394;226;64013;-57
2024/04/20 02:01:41;;;;;;;0.60;0.60;;;;;;;2.94;100.00;96453.84;29395;280;63005;-58
2024/04/20 02:02:12;;;;;;;0.60;0.60;;;;;;;2.94;100.00;96453.84;29395;232;63009;-55
2024/04/20 02:02:44;;;;;;;0.70;0.70;;;;;;;2.97;100.00;96464.03;29395;244;63005;-57
2024/04/20 02:03:15;;;;;;;0.70;0.70;;;;;;;2.98;100.00;96454.94;29395;238;63009;-55
2024/04/20 02:03:47;;;;;;;0.60;0.60;;;;;;;2.97;100.00;96458.69;29394;236;64009;-55
2024/04/20 02:04:18;;;;;;;0.60;0.60;;;;;;;2.96;100.00;96451.72;29394;196;64013;-56
2024/04/20 02:04:49;;;;;;;0.60;0.60;;;;;;;2.93;100.00;96457.56;29394;210;64009;-56
2024/04/20 02:05:20;;;;;;;0.60;0.60;;;;;;;2.93;100.00;96462.94;29395;244;63009;-58
2024/04/20 02:05:52;;;;;;;0.60;0.60;;;;;;;2.98;100.00;96461.12;29394;288;64009;-56
2024/04/20 02:06:23;;;;;;;0.60;0.60;;;;;;;2.99;100.00;96451.19;29395;244;63008;-59
2024/04/20 02:06:57;;;;;;;0.60;0.60;;;;;;;3.00;100.00;96464.34;29394;222;64009;-55
2024/04/20 02:07:28;;;;;;;0.60;0.60;;;;;;;2.99;100.00;96459.25;29395;236;63009;-56
2024/04/20 02:08:00;;;;;;;0.60;0.60;;;;;;;2.95;100.00;96460.81;29395;205;63005;-55
2024/04/20 02:08:31;;;;;;;0.60;0.60;;;;;;;2.96;100.00;96457.06;29395;304;63009;-57
2024/04/20 02:09:02;;;;;;;0.60;0.60;;;;;;;2.99;100.00;96461.91;29395;208;63005;-56
2024/04/20 02:09:34;;;;;;;0.60;0.60;;;;;;;2.99;100.00;96461.91;29395;202;63018;-59
2024/04/20 02:10:06;;;;;;;0.60;0.60;;;;;;;2.98;100.00;96461.12;29395;199;63005;-57
2024/04/20 02:10:37;;;;;;;0.60;0.60;;;;;;;2.95;100.00;96460.81;29395;197;63009;-56
2024/04/20 02:11:09;;;;;;;0.60;0.60;;;;;;;2.93;100.00;96457.56;29395;209;63004;-54
2024/04/20 02:11:41;;;;;;;0.60;0.60;;;;;;;2.93;100.00;96457.56;29395;227;63009;-61
2024/04/20 02:12:12;;;;;;;0.62;0.62;;;;;;;2.93;100.00;96457.56;29394;239;64009;-55
2024/04/20 02:12:43;;;;;;;1.33;1.23;;;;;;;2.94;100.00;96459.19;29395;226;63009;-59
2024/04/20 02:13:14;;;;;;;0.60;0.60;;;;;;;2.95;100.00;96461.62;29395;208;63004;-58
2024/04/20 02:13:45;;;;;;;0.60;0.60;;;;;;;2.99;100.00;96461.91;29395;361;63008;-57
2024/04/20 02:14:16;;;;;;;0.80;0.80;;;;;;;3.02;100.00;96461.41;29395;280;63004;-56
2024/04/20 02:14:48;;;;;;;0.70;0.70;;;;;;;3.01;100.00;96465.16;29395;222;63009;-56
2024/04/20 02:15:19;;;;;;;0.70;0.70;;;;;;;2.95;100.00;96453.56;29395;203;63009;-57
2024/04/20 02:15:50;;;;;;;0.60;0.60;;;;;;;2.92;100.00;96456.75;29394;218;64009;-58
2024/04/20 02:16:21;;;;;;;0.60;0.60;;;;;;;2.93;100.00;96460.25;29395;223;63005;-58
2024/04/20 02:16:56;;;;;;;0.60;0.60;;;;;;;2.90;100.00;96461.56;29394;248;64013;-58
2024/04/20 02:17:27;;;;;;;0.60;0.60;;;;;;;2.92;100.00;96461.31;29395;241;63005;-56
2024/04/20 02:17:58;;;;;;;0.62;0.62;;;;;;;2.91;100.00;96454.34;29395;222;63009;-57
2024/04/20 02:18:30;;;;;;;0.70;0.70;;;;;;;2.90;100.00;96460.75;29395;248;63004;-55
2024/04/20 02:19:01;;;;;;;0.70;0.70;;;;;;;2.90;100.00;96458.88;29395;226;63009;-57
2024/04/20 02:19:33;;;;;;;0.70;0.70;;;;;;;2.93;100.00;96460.25;29395;231;63004;-58
2024/04/20 02:20:06;;;;;;;0.60;0.60;;;;;;;2.89;100.00;96456.47;29394;208;64013;-57
2024/04/20 02:20:37;;;;;;;0.65;0.65;;;;;;;2.89;100.00;96467.19;29395;202;63004;-58
2024/04/20 02:21:11;;;;;;;0.60;0.60;;;;;;;2.91;100.00;96463.19;29395;214;63009;-56
2024/04/20 02:21:43;;;;;;;0.60;0.60;;;;;;;2.91;100.00;96459.69;29395;198;63005;-56
2024/04/20 02:22:14;;;;;;;0.60;0.60;;;;;;;2.89;100.00;96451.91;29394;235;64006;-57
2024/04/20 02:22:46;;;;;;;0.60;0.60;;;;;;;2.89;100.00;96456.47;29395;213;63005;-58
2024/04/20 02:23:17;;;;;;;0.60;0.60;;;;;;;2.88;100.00;96465.56;29395;236;63009;-58
2024/04/20 02:23:48;;;;;;;0.70;0.70;;;;;;;2.89;100.00;96457.28;29395;219;63005;-59
2024/04/20 02:24:19;;;;;;;3.92;3.72;;;;;;;2.91;100.00;96465.06;29395;232;63017;-59
2024/04/20 02:24:50;;;;;;;0.60;0.60;;;;;;;2.95;100.00;96466.16;29395;218;63005;-61
2024/04/20 02:25:25;;;;;;;0.70;0.70;;;;;;;2.98;100.00;96461.12;29395;237;63009;-57
2024/04/20 02:25:56;;;;;;;0.60;0.60;;;;;;;2.96;100.00;96457.06;29395;245;63004;-63
2024/04/20 02:26:28;;;;;;;0.60;0.60;;;;;;;2.95;100.00;96460.81;29395;214;63009;-55
2024/04/20 02:26:59;;;;;;;0.60;0.60;;;;;;;2.94;100.00;96469.91;29394;197;64008;-57
2024/04/20 02:27:30;;;;;;;0.70;0.70;;;;;;;2.93;100.00;96473.66;29395;211;63022;-59
2024/04/20 02:28:01;;;;;;;0.70;0.70;;;;;;;2.88;100.00;96466.38;29395;262;63004;-56
2024/04/20 02:28:32;;;;;;;0.60;0.60;;;;;;;2.90;100.00;96463.44;29395;218;63008;-61
2024/04/20 02:29:04;;;;;;;0.70;0.70;;;;;;;2.92;100.00;96462.13;29395;213;63005;-57
2024/04/20 02:29:35;;;;;;;0.65;0.65;;;;;;;2.92;100.00;96466.69;29395;219;63009;-56
2024/04/20 02:30:07;;;;;;;0.70;0.70;;;;;;;2.93;100.00;96468.28;29394;294;64009;-57
2024/04/20 02:30:39;;;;;;;0.70;0.70;;;;;;;2.94;100.00;96472.59;29395;223;63005;-60
2024/04/20 02:31:10;;;;;;;0.60;0.60;;;;;;;2.93;100.00;96473.66;29395;210;63005;-58
2024/04/20 02:31:41;;;;;;;0.70;0.70;;;;;;;2.93;100.00;96468.28;29395;210;63009;-56